Time;durP1;ratioP1;P1;durP2;ratioP2;P2;SDS_P1;SDS_P2;PMS_P1;PMS_P2;Temp;Humidity;BMP_temperature;BMP_pressure;BME280_temperature;BME280_humidity;BME280_pressure;Samples;Min_cycle;Max_cycle;Signal;HPM_P1;HPM_P2
2021/10/31 00:02:08;;;;;;;94.47;41.08;;;;;;;-0.39;100.00;102299.12;1743601;82;21509;-41
2021/10/31 00:04:34;;;;;;;88.50;41.77;;;;;;;-0.44;100.00;102298.88;1717365;83;20930;-41
2021/10/31 00:07:02;;;;;;;86.32;36.83;;;;;;;-0.48;100.00;102296.96;1780409;80;20864;-41
2021/10/31 00:09:29;;;;;;;59.55;31.17;;;;;;;-0.51;100.00;102290.81;1780699;80;21142;-41
2021/10/31 00:11:56;;;;;;;73.28;32.85;;;;;;;-0.53;100.00;102289.44;1780556;80;21528;-41
2021/10/31 00:14:23;;;;;;;63.35;31.85;;;;;;;-0.55;100.00;102287.61;1743682;82;21000;-41
2021/10/31 00:16:50;;;;;;;83.17;36.25;;;;;;;-0.56;100.00;102286.72;1717508;83;20882;-41
2021/10/31 00:19:16;;;;;;;72.22;32.88;;;;;;;-0.57;100.00;102285.38;1780557;80;20971;-41
2021/10/31 00:21:42;;;;;;;79.67;36.77;;;;;;;-0.61;100.00;102282.66;1750273;80;20955;-41
2021/10/31 00:24:09;;;;;;;79.87;34.35;;;;;;;-0.66;100.00;102281.91;1780444;80;21038;-41
2021/10/31 00:26:35;;;;;;;73.17;33.33;;;;;;;-0.73;100.00;102278.13;1780526;80;21698;-41
2021/10/31 00:29:02;;;;;;;67.27;32.53;;;;;;;-0.77;100.00;102287.66;1783039;80;20991;-41
2021/10/31 00:31:28;;;;;;;73.87;33.58;;;;;;;-0.80;100.00;102284.94;1786121;80;20939;-41
2021/10/31 00:33:54;;;;;;;62.48;31.68;;;;;;;-0.79;100.00;102281.19;1786278;80;21884;-41
2021/10/31 00:36:21;;;;;;;72.47;32.70;;;;;;;-0.79;100.00;102268.89;1786286;80;20876;-41
2021/10/31 00:38:47;;;;;;;71.07;33.50;;;;;;;-0.78;100.00;102274.45;1786357;80;20951;-41
2021/10/31 00:41:14;;;;;;;78.15;32.70;;;;;;;-0.77;100.00;102269.44;1786333;80;20880;-41
2021/10/31 00:43:42;;;;;;;69.82;33.10;;;;;;;-0.76;100.00;102272.50;1786365;80;20975;-41
2021/10/31 00:46:08;;;;;;;75.32;35.58;;;;;;;-0.82;100.00;102274.66;1786160;80;20959;-41
2021/10/31 00:48:35;;;;;;;86.42;38.67;;;;;;;-0.89;100.00;102277.65;1786419;80;21556;-41
2021/10/31 00:51:01;;;;;;;76.00;37.70;;;;;;;-0.96;100.00;102271.73;1786281;80;21454;-41
2021/10/31 00:53:28;;;;;;;82.88;35.13;;;;;;;-1.01;100.00;102277.81;1786439;80;20920;-41
2021/10/31 00:55:54;;;;;;;71.65;32.90;;;;;;;-1.05;100.00;102282.24;1786298;80;20908;-41
2021/10/31 00:58:20;;;;;;;67.08;34.55;;;;;;;-1.09;100.00;102282.85;1757993;80;21086;-41
2021/10/31 01:00:48;;;;;;;58.25;31.17;;;;;;;-1.13;100.00;102283.47;1786342;80;20828;-41
2021/10/31 01:03:15;;;;;;;62.30;32.17;;;;;;;-1.12;100.00;102290.30;1786439;80;20923;-41
2021/10/31 01:05:51;;;;;;;67.72;34.75;;;;;;;-1.10;100.00;102284.50;1786285;80;21489;-41
2021/10/31 01:08:47;;;;;;;72.42;38.38;;;;;;;-1.07;100.00;102282.14;1786206;80;20924;-41
2021/10/31 01:11:37;;;;;;;61.98;30.72;;;;;;;-1.05;100.00;102280.97;1786328;80;21094;-41
2021/10/31 01:14:30;;;;;;;83.82;44.00;;;;;;;-1.05;100.00;102278.02;1786551;80;21077;-41
2021/10/31 01:17:31;;;;;;;78.10;40.15;;;;;;;-1.03;100.00;102270.49;1786318;80;20884;-41
2021/10/31 01:20:19;;;;;;;81.45;40.92;;;;;;;-0.99;100.00;102271.15;1786408;80;20844;-41
2021/10/31 01:23:18;;;;;;;90.17;42.00;;;;;;;-0.96;100.00;102269.20;1786239;80;20912;-41
2021/10/31 01:26:06;;;;;;;86.10;42.38;;;;;;;-0.97;100.00;102267.03;1749046;82;20967;-41
2021/10/31 01:28:59;;;;;;;83.25;40.00;;;;;;;-0.99;100.00;102267.34;1721030;83;20989;-41
2021/10/31 01:32:04;;;;;;;82.53;39.63;;;;;;;-1.03;100.00;102266.68;1657622;83;21019;-41
2021/10/31 01:34:56;;;;;;;82.62;40.38;;;;;;;-1.10;100.00;102270.52;1741473;81;20885;-41
2021/10/31 01:37:46;;;;;;;80.20;41.30;;;;;;;-1.20;100.00;102273.33;1722592;83;21483;-41
2021/10/31 01:40:45;;;;;;;83.27;41.98;;;;;;;-1.28;100.00;102260.16;1741910;82;21146;-41
2021/10/31 01:45:26;;;;;;;101.50;46.85;;;;;;;-1.27;100.00;102261.02;1798255;79;23164;-40
2021/10/31 01:48:35;;;;;;;99.83;46.42;;;;;;;-1.32;100.00;102259.09;1693474;81;20965;-41
2021/10/31 01:51:06;;;;;;;93.67;47.53;;;;;;;-1.32;100.00;102262.90;1758021;81;21126;-42
2021/10/31 01:53:37;;;;;;;93.45;46.83;;;;;;;-1.32;100.00;102258.23;1758203;81;20916;-41
2021/10/31 01:56:13;;;;;;;94.97;47.93;;;;;;;-1.33;100.00;102257.74;1757943;81;20936;-41
2021/10/31 01:58:46;;;;;;;88.82;46.92;;;;;;;-1.33;100.00;102259.02;1739425;81;20979;-41
2021/10/31 02:01:14;;;;;;;94.80;47.17;;;;;;;-1.34;100.00;102254.72;1758142;81;20924;-40
2021/10/31 02:03:41;;;;;;;91.57;45.80;;;;;;;-1.37;100.00;102243.97;1758318;81;21070;-41
2021/10/31 02:06:07;;;;;;;91.35;45.70;;;;;;;-1.39;100.00;102245.92;1757860;81;20925;-41
2021/10/31 02:08:34;;;;;;;149.50;74.80;;;;;;;-1.41;100.00;102250.03;1757934;81;20873;-41
2021/10/31 02:11:01;;;;;;;117.42;60.78;;;;;;;-1.45;100.00;102249.86;1757989;81;21038;-41
2021/10/31 02:13:27;;;;;;;93.40;48.68;;;;;;;-1.46;100.00;102246.83;1758140;81;21481;-41
2021/10/31 02:15:55;;;;;;;108.22;53.90;;;;;;;-1.48;100.00;102249.68;1758082;81;22345;-41
2021/10/31 02:18:23;;;;;;;135.78;62.90;;;;;;;-1.48;100.00;102248.81;1757873;81;20932;-41
2021/10/31 02:20:55;;;;;;;145.97;64.07;;;;;;;-1.53;100.00;102242.56;1758085;81;20948;-41
2021/10/31 02:23:21;;;;;;;205.30;86.97;;;;;;;-1.57;100.00;102241.89;1757797;81;21023;-41
2021/10/31 02:25:48;;;;;;;117.22;56.95;;;;;;;-1.61;100.00;102249.74;1749761;82;21059;-41
2021/10/31 02:28:14;;;;;;;157.18;75.37;;;;;;;-1.64;100.00;102245.34;1749679;81;21108;-41
2021/10/31 02:30:41;;;;;;;128.27;67.62;;;;;;;-1.61;100.00;102244.66;1749521;81;20929;-41
2021/10/31 02:33:08;;;;;;;88.75;42.30;;;;;;;-1.61;100.00;102243.39;1720501;82;21032;-42
2021/10/31 02:35:34;;;;;;;89.58;44.25;;;;;;;-1.60;100.00;102249.82;1749936;82;21434;-42
2021/10/31 02:38:01;;;;;;;84.85;41.83;;;;;;;-1.60;100.00;102248.95;1749771;82;20940;-41
2021/10/31 02:40:27;;;;;;;89.35;42.08;;;;;;;-1.63;100.00;102246.23;1749850;81;21042;-41
2021/10/31 02:42:56;;;;;;;85.30;42.45;;;;;;;-1.68;100.00;102245.95;1749596;82;21431;-41
2021/10/31 02:45:22;;;;;;;75.87;41.80;;;;;;;-1.78;100.00;102240.70;1737087;81;20925;-41
2021/10/31 02:48:13;;;;;;;85.57;40.03;;;;;;;-1.85;100.00;102242.77;1736557;82;20984;-41
2021/10/31 02:50:42;;;;;;;78.00;38.90;;;;;;;-1.94;100.00;102244.34;1736712;82;21463;-41
2021/10/31 02:53:20;;;;;;;84.97;41.37;;;;;;;-2.00;100.00;102246.13;1736414;82;21143;-40
2021/10/31 02:56:07;;;;;;;79.62;41.42;;;;;;;-1.94;100.00;102236.73;1735960;82;20830;-41
2021/10/31 02:58:48;;;;;;;87.55;43.60;;;;;;;-1.87;100.00;102240.16;1736262;82;20964;-41
2021/10/31 03:01:15;;;;;;;85.42;42.85;;;;;;;-1.72;100.00;102233.86;1736158;82;21636;-41
2021/10/31 03:03:41;;;;;;;73.20;41.37;;;;;;;-1.50;100.00;102232.20;1715477;82;20960;-41
2021/10/31 03:06:08;;;;;;;86.63;43.25;;;;;;;-1.35;100.00;102230.09;1677642;82;21857;-41
2021/10/31 03:08:34;;;;;;;93.10;44.03;;;;;;;-1.26;100.00;102226.81;1735788;82;20917;-41
2021/10/31 03:11:04;;;;;;;96.32;45.43;;;;;;;-1.18;100.00;102227.27;1735985;82;20921;-42
2021/10/31 03:13:31;;;;;;;83.55;44.70;;;;;;;-1.07;100.00;102229.16;1736336;82;20988;-41
2021/10/31 03:15:57;;;;;;;91.40;44.93;;;;;;;-0.93;100.00;102223.19;1735823;82;21435;-42
2021/10/31 03:18:24;;;;;;;90.72;46.00;;;;;;;-0.84;100.00;102221.98;1735915;82;21133;-41
2021/10/31 03:20:51;;;;;;;81.57;44.42;;;;;;;-0.75;100.00;102218.29;1735878;82;20885;-41
2021/10/31 03:23:17;;;;;;;81.28;44.77;;;;;;;-0.70;100.00;102214.72;1736004;82;21001;-41
2021/10/31 03:25:44;;;;;;;89.92;45.92;;;;;;;-0.66;100.00;102211.95;1735924;82;21415;-41
2021/10/31 03:28:10;;;;;;;92.17;45.43;;;;;;;-0.65;100.00;102205.66;1736250;82;20995;-41
2021/10/31 03:30:37;;;;;;;98.92;44.77;;;;;;;-0.59;100.00;102207.69;1735967;82;21136;-41
2021/10/31 03:33:03;;;;;;;89.55;44.30;;;;;;;-0.51;100.00;102206.42;1735771;81;20886;-41
2021/10/31 03:35:30;;;;;;;92.05;46.37;;;;;;;-0.39;100.00;102207.50;1735893;82;20937;-41
2021/10/31 03:37:57;;;;;;;87.22;45.88;;;;;;;-0.33;100.00;102196.41;1735988;82;21004;-41
2021/10/31 03:40:23;;;;;;;83.05;45.28;;;;;;;-0.20;100.00;102202.14;1736028;82;21449;-42
2021/10/31 03:42:50;;;;;;;91.00;44.85;;;;;;;-0.17;100.00;102201.03;1735892;82;21080;-41
2021/10/31 03:45:16;;;;;;;93.10;46.77;;;;;;;-0.20;100.00;102203.41;1746717;81;20964;-42
2021/10/31 03:47:47;;;;;;;97.55;45.83;;;;;;;-0.28;100.00;102209.36;1750302;82;20861;-41
2021/10/31 03:50:12;;;;;;;95.47;45.83;;;;;;;-0.34;100.00;102207.76;1749653;82;20987;-41
2021/10/31 03:52:42;;;;;;;89.17;43.00;;;;;;;-0.44;100.00;102206.37;1749951;82;21582;-41
2021/10/31 03:55:08;;;;;;;91.60;45.50;;;;;;;-0.55;100.00;102206.20;1750221;82;21068;-42
2021/10/31 03:57:36;;;;;;;87.25;43.55;;;;;;;-0.67;100.00;102202.16;1722419;82;20936;-41
2021/10/31 04:00:09;;;;;;;86.15;44.45;;;;;;;-0.78;100.00;102205.78;1750106;82;20975;-41
2021/10/31 04:02:38;;;;;;;91.17;45.20;;;;;;;-0.84;100.00;102203.77;1749876;81;21454;-41
2021/10/31 04:05:06;;;;;;;90.95;46.05;;;;;;;-0.90;100.00;102200.47;1749351;82;21404;-41
2021/10/31 04:07:33;;;;;;;82.15;43.85;;;;;;;-0.94;100.00;102198.55;1750123;82;21130;-41
2021/10/31 04:10:03;;;;;;;94.90;47.30;;;;;;;-0.93;100.00;102199.44;1749841;82;20940;-41
2021/10/31 04:12:31;;;;;;;88.27;46.35;;;;;;;-0.85;100.00;102194.80;1749830;82;20948;-41
2021/10/31 04:14:57;;;;;;;92.50;47.55;;;;;;;-0.68;100.00;102193.19;1750069;82;20968;-41
2021/10/31 04:17:23;;;;;;;98.58;49.42;;;;;;;-0.51;100.00;102194.12;1749955;82;20936;-41
2021/10/31 04:19:50;;;;;;;100.00;50.48;;;;;;;-0.38;100.00;102192.73;1750129;82;21113;-40
2021/10/31 04:22:17;;;;;;;94.42;47.73;;;;;;;-0.33;100.00;102187.88;1722342;82;20947;-41
2021/10/31 04:24:43;;;;;;;114.65;52.93;;;;;;;-0.35;100.00;102185.27;1749758;82;20861;-41
2021/10/31 04:27:09;;;;;;;106.58;50.03;;;;;;;-0.39;100.00;102186.28;1749928;82;20913;-41
2021/10/31 04:29:36;;;;;;;112.60;55.12;;;;;;;-0.45;100.00;102182.61;1722227;82;21428;-41
2021/10/31 04:32:04;;;;;;;104.67;53.05;;;;;;;-0.47;100.00;102185.86;1749891;82;21775;-41
2021/10/31 04:34:31;;;;;;;102.32;52.27;;;;;;;-0.45;100.00;102185.54;1750091;82;20963;-41
2021/10/31 04:36:59;;;;;;;104.47;52.27;;;;;;;-0.45;100.00;102189.36;1749887;82;21019;-41
2021/10/31 04:39:26;;;;;;;97.37;50.78;;;;;;;-0.45;100.00;102185.54;1749742;82;21011;-41
2021/10/31 04:42:00;;;;;;;92.72;48.55;;;;;;;-0.47;100.00;102185.47;1750135;82;21581;-41
2021/10/31 04:44:20;;;;;;;89.05;48.05;;;;;;;-0.48;100.00;102190.09;1745128;80;21146;-41
2021/10/31 04:46:47;;;;;;;92.05;47.48;;;;;;;-0.38;100.00;102186.37;1735975;82;21478;-41
2021/10/31 04:49:13;;;;;;;99.15;48.40;;;;;;;-0.26;100.00;102178.91;1735987;82;21219;-41
2021/10/31 04:51:41;;;;;;;89.20;46.83;;;;;;;-0.21;100.00;102178.75;1735892;82;20972;-41
2021/10/31 04:54:08;;;;;;;94.32;45.88;;;;;;;-0.13;100.00;102178.75;1735787;82;20965;-41
2021/10/31 04:56:35;;;;;;;95.45;47.67;;;;;;;-0.07;100.00;102180.38;1735982;82;21935;-41
2021/10/31 04:59:02;;;;;;;95.28;50.55;;;;;;;0.01;100.00;102174.80;1735745;82;20969;-41
2021/10/31 05:01:28;;;;;;;87.82;44.42;;;;;;;0.06;100.00;102175.53;1735757;82;21016;-41
2021/10/31 05:03:55;;;;;;;102.78;51.95;;;;;;;0.12;100.00;102178.77;1735765;82;20932;-41
2021/10/31 05:06:21;;;;;;;96.53;50.35;;;;;;;0.15;100.00;102175.14;1735763;82;21480;-41
2021/10/31 05:08:48;;;;;;;95.05;48.98;;;;;;;0.20;100.00;102171.16;1736088;82;21117;-41
2021/10/31 05:11:14;;;;;;;93.15;45.85;;;;;;;0.24;100.00;102169.62;1735801;82;20973;-41
2021/10/31 05:13:41;;;;;;;80.70;41.90;;;;;;;0.26;100.00;102161.27;1715332;82;20976;-41
2021/10/31 05:16:08;;;;;;;95.42;52.00;;;;;;;0.27;100.00;102159.20;1735857;82;20980;-41
2021/10/31 05:18:36;;;;;;;90.90;47.60;;;;;;;0.30;100.00;102161.42;1735842;82;20921;-41
2021/10/31 05:21:02;;;;;;;91.00;47.05;;;;;;;0.32;100.00;102167.47;1735790;82;21145;-41
2021/10/31 05:23:29;;;;;;;85.30;47.33;;;;;;;0.38;100.00;102163.95;1735828;82;20937;-42
2021/10/31 05:25:55;;;;;;;95.32;48.40;;;;;;;0.46;100.00;102171.61;1735778;82;20973;-41
2021/10/31 05:28:22;;;;;;;92.05;45.83;;;;;;;0.59;100.00;102169.66;1736124;81;21534;-41
2021/10/31 05:30:48;;;;;;;83.90;43.38;;;;;;;0.68;100.00;102172.69;1735813;81;20976;-41
2021/10/31 05:33:14;;;;;;;83.20;46.70;;;;;;;0.78;100.00;102170.20;1735851;82;21058;-41
2021/10/31 05:35:41;;;;;;;79.77;42.85;;;;;;;0.89;100.00;102168.19;1735795;82;20914;-41
2021/10/31 05:38:07;;;;;;;80.10;41.92;;;;;;;0.99;100.00;102166.55;1691336;82;20996;-41
2021/10/31 05:40:34;;;;;;;84.28;45.10;;;;;;;1.08;100.00;102165.70;1735895;82;20925;-41
2021/10/31 05:43:00;;;;;;;84.90;45.85;;;;;;;1.18;100.00;102169.98;1735952;82;21491;-41
2021/10/31 05:45:26;;;;;;;85.40;44.93;;;;;;;1.25;100.00;102175.84;1735813;82;21124;-41
2021/10/31 05:47:53;;;;;;;80.92;44.33;;;;;;;1.31;100.00;102179.09;1735735;82;21020;-41
2021/10/31 05:50:20;;;;;;;78.47;42.95;;;;;;;1.38;100.00;102179.85;1736337;82;20992;-42
2021/10/31 05:52:46;;;;;;;76.87;41.35;;;;;;;1.45;100.00;102177.20;1735729;82;21015;-42
2021/10/31 05:55:15;;;;;;;81.10;41.25;;;;;;;1.52;100.00;102176.28;1735729;81;20850;-42
2021/10/31 05:57:42;;;;;;;79.07;42.83;;;;;;;1.59;100.00;102182.52;1735817;82;21133;-41
2021/10/31 06:00:10;;;;;;;79.17;41.13;;;;;;;1.66;100.00;102182.41;1735809;82;20850;-41
2021/10/31 06:02:44;;;;;;;81.25;42.93;;;;;;;1.74;100.00;102182.77;1735934;82;20877;-41
2021/10/31 06:05:12;;;;;;;79.77;40.65;;;;;;;1.82;100.00;102190.36;1715058;82;20929;-41
2021/10/31 06:07:41;;;;;;;73.95;39.42;;;;;;;1.91;100.00;102191.19;1715197;82;20972;-42
2021/10/31 06:10:10;;;;;;;79.05;39.10;;;;;;;2.00;100.00;102192.48;1735935;82;21816;-41
2021/10/31 06:12:45;;;;;;;78.35;40.95;;;;;;;2.11;100.00;102193.34;1735311;82;20968;-42
2021/10/31 06:15:19;;;;;;;76.35;41.63;;;;;;;2.22;100.00;102192.16;1735942;82;20925;-42
2021/10/31 06:17:47;;;;;;;79.10;40.52;;;;;;;2.33;100.00;102194.30;1735785;82;21487;-42
2021/10/31 06:20:15;;;;;;;75.03;40.63;;;;;;;2.44;100.00;102191.81;1735939;82;21328;-42
2021/10/31 06:22:42;;;;;;;85.75;41.37;;;;;;;2.54;100.00;102198.20;1735694;82;21322;-41
2021/10/31 06:25:10;;;;;;;83.65;40.88;;;;;;;2.64;100.00;102201.60;1735661;82;20945;-42
2021/10/31 06:27:38;;;;;;;86.67;40.63;;;;;;;2.73;100.00;102206.23;1735727;82;20944;-42
2021/10/31 06:30:06;;;;;;;84.67;40.40;;;;;;;2.81;100.00;102207.42;1715110;82;20952;-42
2021/10/31 06:32:32;;;;;;;79.85;39.18;;;;;;;2.91;100.00;102207.83;1715140;82;20913;-42
2021/10/31 06:34:59;;;;;;;77.15;40.67;;;;;;;3.01;100.00;102207.38;1735987;82;21136;-42
2021/10/31 06:37:26;;;;;;;76.30;40.23;;;;;;;3.11;100.00;102196.69;1735865;82;20842;-42
2021/10/31 06:39:53;;;;;;;73.65;39.95;;;;;;;3.21;100.00;102199.64;1736072;82;20989;-42
2021/10/31 06:42:20;;;;;;;77.22;39.88;;;;;;;3.32;100.00;102199.64;1735706;81;20943;-42
2021/10/31 06:44:46;;;;;;;82.35;40.12;;;;;;;3.42;100.00;102195.77;1738420;82;21517;-41
2021/10/31 06:47:15;;;;;;;81.00;39.25;;;;;;;3.64;100.00;102197.45;1749894;82;21792;-42
2021/10/31 06:49:42;;;;;;;74.92;37.15;;;;;;;3.64;100.00;102197.45;1749899;82;20933;-42
2021/10/31 06:52:09;;;;;;;75.00;39.15;;;;;;;3.78;100.00;102190.28;1750067;82;21717;-42
2021/10/31 06:54:35;;;;;;;78.12;36.68;;;;;;;3.93;100.00;102190.40;1749851;82;20885;-42
2021/10/31 06:57:03;;;;;;;74.00;38.23;;;;;;;4.06;100.00;102192.61;1749966;82;21026;-42
2021/10/31 06:59:32;;;;;;;77.70;37.40;;;;;;;4.17;100.00;102198.12;1722394;82;21170;-42
2021/10/31 07:01:59;;;;;;;68.52;36.93;;;;;;;4.25;100.00;102192.86;1750017;82;21561;-42
2021/10/31 07:04:27;;;;;;;86.05;37.60;;;;;;;4.36;100.00;102195.80;1749686;82;20913;-42
2021/10/31 07:06:54;;;;;;;73.05;37.55;;;;;;;4.45;100.00;102187.13;1749797;82;21462;-42
2021/10/31 07:09:20;;;;;;;80.35;40.75;;;;;;;4.53;100.00;102174.58;1749955;82;20964;-42
2021/10/31 07:11:47;;;;;;;76.87;41.50;;;;;;;4.63;100.00;102174.48;1749747;82;21164;-42
2021/10/31 07:14:13;;;;;;;85.62;47.40;;;;;;;4.72;100.00;102175.20;1749806;82;21514;-43
2021/10/31 07:16:42;;;;;;;84.47;47.20;;;;;;;4.84;99.89;102168.33;1749978;82;20897;-42
2021/10/31 07:19:08;;;;;;;88.92;49.10;;;;;;;5.08;95.82;102169.52;1749908;82;20968;-41
2021/10/31 07:21:34;;;;;;;83.80;48.65;;;;;;;5.08;95.82;102169.52;1750250;82;20975;-42
2021/10/31 07:24:01;;;;;;;84.07;48.73;;;;;;;5.26;96.12;102170.92;1749847;81;21798;-42
2021/10/31 07:26:27;;;;;;;80.90;45.23;;;;;;;5.41;95.50;102171.38;1749816;82;20924;-41
2021/10/31 07:28:55;;;;;;;83.75;43.90;;;;;;;5.56;94.54;102168.83;1749945;82;20991;-42
2021/10/31 07:31:25;;;;;;;77.08;42.35;;;;;;;5.64;91.56;102168.63;1722416;82;21558;-41
2021/10/31 07:33:53;;;;;;;66.30;36.88;;;;;;;5.72;91.40;102168.46;1749899;82;21466;-42
2021/10/31 07:36:19;;;;;;;61.92;34.23;;;;;;;5.83;89.19;102157.20;1750111;82;21834;-42
2021/10/31 07:38:46;;;;;;;56.05;28.87;;;;;;;5.97;89.15;102161.84;1722177;82;20980;-41
2021/10/31 07:41:12;;;;;;;62.33;32.03;;;;;;;6.06;88.44;102161.27;1722017;82;20920;-41
2021/10/31 07:43:39;;;;;;;51.42;28.47;;;;;;;6.18;88.17;102157.73;1722070;82;20981;-41
2021/10/31 07:46:05;;;;;;;53.98;27.77;;;;;;;6.28;85.65;102153.70;1741815;81;20885;-41
2021/10/31 07:48:32;;;;;;;55.60;28.02;;;;;;;6.38;86.07;102149.68;1735814;82;21111;-41
2021/10/31 07:51:00;;;;;;;49.67;28.02;;;;;;;6.50;85.00;102156.45;1735861;82;20917;-41
2021/10/31 07:53:26;;;;;;;42.00;24.75;;;;;;;6.63;85.24;102152.88;1735781;82;20972;-41
2021/10/31 07:55:53;;;;;;;47.58;26.68;;;;;;;6.80;84.86;102141.31;1735910;82;21023;-41
2021/10/31 07:58:26;;;;;;;45.12;24.00;;;;;;;6.98;82.35;102150.31;1735774;82;20929;-42
2021/10/31 08:00:49;;;;;;;46.20;25.55;;;;;;;7.12;82.24;102152.78;1734508;82;21123;-41
2021/10/31 08:03:18;;;;;;;47.30;25.23;;;;;;;7.32;83.49;102147.22;1714765;82;20866;-41
2021/10/31 08:05:45;;;;;;;46.13;24.82;;;;;;;7.48;81.57;102149.70;1714800;82;20901;-42
2021/10/31 08:08:11;;;;;;;43.92;25.75;;;;;;;7.67;81.28;102147.09;1736018;82;21407;-42
2021/10/31 08:10:38;;;;;;;42.50;24.02;;;;;;;7.85;77.67;102142.75;1714847;82;21023;-41
2021/10/31 08:13:04;;;;;;;48.58;22.42;;;;;;;7.97;77.49;102144.70;1735920;82;21950;-42
2021/10/31 08:15:33;;;;;;;36.93;21.07;;;;;;;8.10;77.66;102143.22;1735790;82;20921;-42
2021/10/31 08:17:59;;;;;;;50.45;23.02;;;;;;;8.32;77.67;102148.34;1714952;82;20957;-41
2021/10/31 08:20:26;;;;;;;42.20;21.00;;;;;;;8.59;77.54;102141.95;1735914;82;20890;-42
2021/10/31 08:22:53;;;;;;;37.93;19.70;;;;;;;8.84;77.15;102144.94;1735785;82;20922;-42
2021/10/31 08:25:20;;;;;;;30.88;16.05;;;;;;;9.10;76.99;102141.87;1735743;81;21197;-42
2021/10/31 08:27:46;;;;;;;28.95;13.08;;;;;;;9.34;74.90;102135.32;1735795;81;21554;-42
2021/10/31 08:30:12;;;;;;;20.32;12.47;;;;;;;9.59;72.94;102143.39;1735800;82;21430;-42
2021/10/31 08:32:47;;;;;;;20.55;11.80;;;;;;;9.81;72.35;102122.53;1735912;82;20846;-42
2021/10/31 08:35:14;;;;;;;22.90;12.53;;;;;;;9.92;69.16;102127.83;1736086;82;20933;-42
2021/10/31 08:37:40;;;;;;;22.67;13.10;;;;;;;10.08;69.44;102122.83;1735743;82;21035;-42
2021/10/31 08:40:09;;;;;;;26.15;13.65;;;;;;;10.21;68.58;102120.78;1735840;82;21495;-42
2021/10/31 08:42:36;;;;;;;23.67;12.75;;;;;;;10.36;66.95;102121.38;1714902;82;20937;-43
2021/10/31 08:45:04;;;;;;;34.30;14.10;;;;;;;10.54;66.61;102120.70;1715262;81;21463;-43
2021/10/31 08:47:32;;;;;;;20.30;12.58;;;;;;;10.71;65.91;102116.06;1722764;82;20900;-44
2021/10/31 08:49:58;;;;;;;23.22;12.88;;;;;;;10.82;64.10;102115.73;1722211;82;21202;-43
2021/10/31 08:52:25;;;;;;;21.75;12.00;;;;;;;10.93;63.90;102113.22;1749682;82;20897;-43
2021/10/31 08:54:51;;;;;;;23.42;13.20;;;;;;;11.06;63.54;102114.16;1749815;82;20977;-43
2021/10/31 08:57:18;;;;;;;20.70;11.75;;;;;;;11.15;62.20;102112.05;1750027;82;21479;-43
2021/10/31 08:59:44;;;;;;;28.60;12.82;;;;;;;11.24;61.64;102108.62;1749981;82;20983;-43
2021/10/31 09:02:12;;;;;;;25.95;12.28;;;;;;;11.30;60.36;102104.78;1749996;82;20849;-44
2021/10/31 09:04:41;;;;;;;20.48;11.18;;;;;;;11.28;60.54;102100.03;1749693;80;21023;-43
2021/10/31 09:07:14;;;;;;;19.50;10.20;;;;;;;11.20;58.63;102106.02;1749776;82;20941;-41
2021/10/31 09:09:39;;;;;;;18.50;10.70;;;;;;;11.12;59.06;102099.08;1749718;81;21522;-40
2021/10/31 09:12:08;;;;;;;14.95;9.80;;;;;;;11.08;58.82;102096.89;1750042;82;20944;-41
2021/10/31 09:14:34;;;;;;;16.73;10.08;;;;;;;11.07;59.21;102095.16;1749770;81;21053;-41
2021/10/31 09:17:04;;;;;;;22.45;10.68;;;;;;;11.12;58.87;102092.16;1749684;82;20897;-41
2021/10/31 09:19:30;;;;;;;18.77;10.70;;;;;;;11.17;58.15;102086.56;1749803;82;20988;-41
2021/10/31 09:21:57;;;;;;;20.97;10.38;;;;;;;11.20;58.22;102087.87;1749757;82;20928;-41
2021/10/31 09:24:23;;;;;;;18.80;10.15;;;;;;;11.18;57.12;102079.22;1749865;82;20962;-41
2021/10/31 09:26:49;;;;;;;17.10;10.85;;;;;;;11.03;57.47;102076.57;1750261;82;21098;-41
2021/10/31 09:29:16;;;;;;;19.37;10.35;;;;;;;10.93;57.68;102064.84;1749884;82;20904;-41
2021/10/31 09:31:42;;;;;;;25.23;11.00;;;;;;;10.82;58.32;102061.33;1749943;82;21431;-42
2021/10/31 09:34:09;;;;;;;21.75;10.55;;;;;;;10.93;58.39;102064.84;1721900;82;21533;-42
2021/10/31 09:36:36;;;;;;;23.45;10.98;;;;;;;11.10;58.95;102064.08;1722403;82;21399;-43
2021/10/31 09:39:07;;;;;;;25.70;10.95;;;;;;;11.27;58.39;102057.67;1749878;82;21793;-42
2021/10/31 09:41:35;;;;;;;16.73;10.28;;;;;;;11.50;57.64;102041.33;1722177;82;21010;-42
2021/10/31 09:46:47;;;;;;;24.87;12.40;;;;;;;11.71;55.80;102040.51;1741286;82;20885;-42
2021/10/31 09:49:14;;;;;;;36.23;14.03;;;;;;;11.83;56.33;102031.03;1735700;82;21582;-43
2021/10/31 09:51:42;;;;;;;28.98;16.73;;;;;;;11.99;56.37;102031.46;1735996;82;21924;-42
2021/10/31 09:54:10;;;;;;;33.55;21.48;;;;;;;12.27;54.71;102015.07;1736137;82;21035;-43
2021/10/31 09:56:37;;;;;;;21.70;12.43;;;;;;;12.29;55.07;102017.23;1735786;82;21451;-42
2021/10/31 09:59:11;;;;;;;23.42;13.48;;;;;;;12.42;53.93;102015.07;1735573;81;20972;-42
2021/10/31 10:02:00;;;;;;;29.00;19.32;;;;;;;12.25;54.21;102008.60;1735705;82;20980;-42
2021/10/31 10:04:36;;;;;;;35.63;21.25;;;;;;;12.16;54.50;102005.98;1734841;82;21798;-42
2021/10/31 10:07:06;;;;;;;31.65;13.65;;;;;;;12.06;55.04;102002.52;1735833;82;20917;-42
2021/10/31 10:09:34;;;;;;;24.57;11.55;;;;;;;12.19;55.66;101991.70;1735784;82;20984;-42
2021/10/31 10:12:15;;;;;;;16.52;10.95;;;;;;;12.48;55.33;101989.08;1736083;82;20934;-42
2021/10/31 10:14:42;;;;;;;22.73;9.80;;;;;;;12.78;54.64;101981.22;1736006;82;20968;-43
2021/10/31 10:17:14;;;;;;;18.73;9.98;;;;;;;12.95;54.49;101982.45;1655370;82;21143;-43
2021/10/31 10:19:55;;;;;;;16.30;9.53;;;;;;;13.11;54.39;101968.95;1735742;82;20977;-43
2021/10/31 10:22:26;;;;;;;13.18;9.28;;;;;;;13.33;53.68;101971.44;1736101;82;21011;-43
2021/10/31 10:24:57;;;;;;;16.67;9.30;;;;;;;13.47;52.42;101968.33;1735814;82;21068;-43
2021/10/31 10:27:30;;;;;;;11.60;8.25;;;;;;;13.53;52.52;101964.83;1735991;82;21475;-44
2021/10/31 10:29:57;;;;;;;15.95;8.28;;;;;;;13.58;52.12;101960.45;1735895;82;21137;-43
2021/10/31 10:32:26;;;;;;;16.17;8.65;;;;;;;13.62;51.72;101948.30;1735849;81;20941;-46
2021/10/31 10:34:55;;;;;;;16.12;8.40;;;;;;;13.60;51.62;101947.45;1735915;82;20979;-43
2021/10/31 10:37:29;;;;;;;13.62;8.55;;;;;;;13.58;51.27;101943.55;1736230;82;20936;-43
2021/10/31 10:40:00;;;;;;;12.00;7.75;;;;;;;13.53;51.64;101947.92;1735839;81;20922;-43
2021/10/31 10:42:34;;;;;;;13.00;8.70;;;;;;;13.48;51.42;101941.89;1736165;82;21075;-43
2021/10/31 10:45:05;;;;;;;20.72;11.95;;;;;;;13.48;51.49;101945.34;1735777;82;21452;-43
2021/10/31 10:47:42;;;;;;;16.73;9.55;;;;;;;13.52;51.50;101941.45;1746920;81;21398;-44
2021/10/31 10:50:17;;;;;;;19.50;10.28;;;;;;;13.57;50.92;101940.97;1724341;82;20992;-44
2021/10/31 10:52:44;;;;;;;13.60;10.43;;;;;;;13.46;50.59;101948.39;1749341;82;21442;-44
2021/10/31 10:55:22;;;;;;;12.82;8.48;;;;;;;13.42;51.11;101938.02;1750006;82;21759;-42
2021/10/31 10:57:56;;;;;;;12.25;8.68;;;;;;;13.50;51.54;101933.64;1749879;82;20922;-44
2021/10/31 11:00:35;;;;;;;13.93;9.27;;;;;;;13.67;51.66;101943.91;1722403;82;21075;-44
2021/10/31 11:03:14;;;;;;;18.60;10.08;;;;;;;13.75;50.69;101939.50;1748977;82;21391;-43
2021/10/31 11:05:44;;;;;;;14.75;9.03;;;;;;;13.76;50.14;101935.18;1722067;82;20913;-43
2021/10/31 11:08:24;;;;;;;13.15;8.93;;;;;;;13.69;49.79;101938.72;1750036;81;21061;-43
2021/10/31 11:11:02;;;;;;;10.88;7.97;;;;;;;13.59;50.23;101930.96;1749959;82;21568;-43
2021/10/31 11:13:30;;;;;;;16.87;9.28;;;;;;;13.63;50.17;101926.16;1750023;82;20989;-43
2021/10/31 11:15:59;;;;;;;12.65;8.25;;;;;;;13.68;50.38;101925.28;1749877;82;20929;-43
2021/10/31 11:18:26;;;;;;;13.50;9.23;;;;;;;13.76;50.23;101915.66;1750049;82;20869;-43
2021/10/31 11:20:52;;;;;;;12.90;7.90;;;;;;;13.80;49.64;101917.36;1749825;82;21186;-44
2021/10/31 11:23:21;;;;;;;14.83;7.47;;;;;;;13.79;49.81;101915.20;1722308;82;20995;-41